Terminal Aerodrome Forecast
Issued by NWS Tampa Bay Area, FL

Home | Current Version | Previous Version | Text Only | Print | Product List | Glossary On
Versions: 1 2 3 4 5 6 7 8 9 10 11 12 13 14 15 16 17 18 19 20 21 22 23 24 25 26
732
FTUS42 KTBW 231129
TAFTPA
TAF
KTPA 231129Z 2312/2412 30005KT P6SM VCSH SCT008 BKN025 OVC080
      TEMPO 2312/2314 3SM -SHRA BR BKN008
     FM231500 35006KT P6SM SCT025 BKN120
     FM231800 01009KT P6SM SCT030 SCT120=

USA.gov is the U.S. government's official web portal to all federal, state and local government web resources and services.